ADDS METAR Data INFO
IDs: Format: Raw Decoded Include TAF

Data at: 2114 UTC 22 Oct 2017

K2A0 222055Z AUTO 17006KT 10SM SCT070 25/17 A3012 RMK A01
K2A0 222035Z AUTO 17007KT 10SM SCT065 25/17 A3012 RMK A01
K2A0 222015Z AUTO 17007G14KT 150V210 10SM SCT065 25/17 A3013 RMK A01
K2A0 221955Z AUTO 18011G17KT 10SM FEW048 SCT065 26/17 A3013 RMK A01
K2A0 221935Z AUTO 18010G15KT 10SM SCT047 SCT055 BKN065 26/17 A3013 RMK A01
K2A0 221915Z AUTO 18010G15KT 10SM FEW046 FEW055 SCT065 27/18 A3013 RMK A01
K2A0 221855Z AUTO 17011KT 120V200 10SM CLR 26/18 A3014 RMK A01
K2A0 221835Z AUTO 18009G15KT 160V220 10SM CLR 26/18 A3015 RMK A01
K2A0 221815Z AUTO 20007KT 160V220 10SM FEW045 FEW060 26/18 A3016 RMK A01
K2A0 221755Z AUTO 23006KT 10SM CLR 25/18 A3017 RMK A01
K2A0 221735Z AUTO 23006G11KT 10SM CLR 25/17 A3018 RMK A01
K2A0 221715Z AUTO 25007KT 10SM SCT060 24/17 A3018 RMK A01
K2A0 221655Z AUTO 28005KT 10SM SCT060 23/17 A3019 RMK A01
K2A0 221635Z AUTO 25005KT 10SM FEW060 23/17 A3019 RMK A01
K2A0 221615Z AUTO 00000KT 10SM CLR 23/16 A3020 RMK A01
K2A0 221555Z AUTO 00000KT 10SM SCT055 21/16 A3021 RMK A01
K2A0 221535Z AUTO 00000KT 10SM BKN055 20/15 A3022 RMK A01
K2A0 221515Z AUTO 00000KT 10SM BKN055 19/15 A3024 RMK A01
K2A0 221455Z AUTO 00000KT 10SM CLR 18/14 A3024 RMK A01
K2A0 221435Z AUTO 00000KT 10SM CLR 17/14 A3025 RMK A01
K2A0 221415Z AUTO 00000KT 10SM CLR 15/14 A3025 RMK A01
K2A0 221355Z AUTO 00000KT 9SM CLR 14/14 A3025 RMK A01
K2A0 221335Z AUTO 00000KT 10SM CLR 13/13 A3025 RMK A01
K2A0 221315Z AUTO 00000KT 10SM CLR 12/12 A3025 RMK A01
K2A0 221255Z AUTO 00000KT 10SM CLR 11/11 A3025 RMK A01
K2A0 221235Z AUTO 00000KT 8SM CLR 10/10 A3026 RMK A01
K2A0 221215Z AUTO 00000KT 8SM CLR 09/09 A3025 RMK A01
K2A0 221155Z AUTO 00000KT 9SM CLR 09/09 A3025 RMK A01
K2A0 221135Z AUTO 00000KT 8SM CLR 09/09 A3024 RMK A01
K2A0 221115Z AUTO 00000KT 9SM CLR 09/09 A3024 RMK A01
K2A0 221055Z AUTO 00000KT 9SM CLR 09/09 A3024 RMK A01
K2A0 221035Z AUTO 00000KT 1/4SM FG 09/09 A3023 RMK A01
K2A0 221015Z AUTO 00000KT 1/4SM FG 09/09 A3023 RMK A01
K2A0 220955Z AUTO 00000KT M1/4SM FG 10/10 A3023 RMK A01
K2A0 220935Z AUTO 00000KT M1/4SM FG 09/09 A3022 RMK A01
K2A0 220915Z AUTO 00000KT 1/2SM BR VV005 09/09 A3022 RMK A01 VIS 1/4V5
K2A0 220855Z AUTO 00000KT 8SM CLR 10/10 A3022 RMK A01
K2A0 220835Z AUTO 00000KT 5SM BR CLR 10/10 A3023 RMK A01
K2A0 220815Z AUTO 00000KT 6SM BR CLR 10/10 A3023 RMK A01
K2A0 220755Z AUTO 00000KT 10SM CLR 10/10 A3024 RMK A01
K2A0 220735Z AUTO 00000KT 6SM BR CLR 10/10 A3024 RMK A01
K2A0 220715Z AUTO 00000KT 8SM CLR 10/10 A3024 RMK A01
K2A0 220655Z AUTO 00000KT 9SM CLR 10/10 A3024 RMK A01
K2A0 220635Z AUTO 00000KT 10SM SCT002 11/10 A3024 RMK A01
K2A0 220615Z AUTO 00000KT 10SM SCT002 11/10 A3025 RMK A01
K2A0 220555Z AUTO 00000KT 9SM CLR 10/10 A3025 RMK A01
K2A0 220535Z AUTO 00000KT 10SM FEW002 10/10 A3025 RMK A01
K2A0 220515Z AUTO 00000KT 9SM FEW002 11/11 A3025 RMK A01
K2A0 220455Z AUTO 00000KT 10SM CLR 11/11 A3025 RMK A01
K2A0 220435Z AUTO 00000KT 10SM CLR 11/11 A3026 RMK A01
K2A0 220415Z AUTO 00000KT 8SM CLR 11/11 A3026 RMK A01
K2A0 220355Z AUTO 00000KT 10SM CLR 11/11 A3027 RMK A01
K2A0 220335Z AUTO 00000KT 10SM CLR 12/12 A3026 RMK A01
K2A0 220315Z AUTO 00000KT 10SM FEW018 12/12 A3026 RMK A01
K2A0 220255Z AUTO 00000KT 3SM BR FEW018 12/12 A3026 RMK A01
K2A0 220235Z AUTO 00000KT 13/13 A3025 RMK A01
K2A0 220215Z AUTO 00000KT 10SM CLR 13/13 A3025 RMK A01
K2A0 220155Z AUTO 00000KT 10SM CLR 14/13 A3025 RMK A01
K2A0 220135Z AUTO 00000KT 10SM CLR 14/14 A3024 RMK A01
K2A0 220115Z AUTO 00000KT 10SM CLR 14/14 A3024 RMK A01
K2A0 220055Z AUTO 00000KT 10SM CLR 15/15 A3024 RMK A01
K2A0 220035Z AUTO 00000KT 10SM CLR 15/15 A3024 RMK A01
K2A0 220015Z AUTO 00000KT 10SM CLR 16/15 A3024 RMK A01
K2A0 212355Z AUTO 00000KT 10SM CLR 17/16 A3023 RMK A01
K2A0 212335Z AUTO 00000KT 10SM CLR 17/16 A3023 RMK A01
K2A0 212315Z AUTO 00000KT 10SM CLR 18/16 A3022 RMK A01
K2A0 212255Z AUTO 00000KT 10SM CLR 19/16 A3022 RMK A01
K2A0 212235Z AUTO 00000KT 10SM CLR 20/16 A3022 RMK A01
K2A0 212215Z AUTO 00000KT 10SM CLR 22/16 A3022 RMK A01
K2A0 212155Z AUTO 00000KT 10SM CLR 23/15 A3022 RMK A01
K2A0 212135Z AUTO 00000KT 10SM CLR 25/14 A3022 RMK A01
K2A0 212115Z AUTO 00000KT 10SM CLR 25/13 A3022 RMK A01
K2A0 212055Z AUTO 00000KT 10SM CLR 25/13 A3022 RMK A01
K2A0 212035Z AUTO 00000KT 10SM CLR 25/13 A3023 RMK A01
K2A0 212015Z AUTO 00000KT 10SM CLR 25/13 A3023 RMK A01
K2A0 211955Z AUTO 00000KT 10SM CLR 25/14 A3022 RMK A01
K2A0 211935Z AUTO 00000KT 10SM CLR 25/14 A3023 RMK A01
K2A0 211915Z AUTO 00000KT 10SM CLR 24/14 A3023 RMK A01
K2A0 211855Z AUTO 00000KT 10SM CLR 24/15 A3024 RMK A01
K2A0 211835Z AUTO 00000KT 10SM CLR 22/14 A3025 RMK A01
K2A0 211815Z AUTO 00000KT 10SM CLR 22/14 A3025 RMK A01
K2A0 211755Z AUTO 00000KT 10SM CLR 22/14 A3026 RMK A01
K2A0 211735Z AUTO 00000KT 10SM CLR 21/14 A3028 RMK A01
K2A0 211715Z AUTO 00000KT 10SM CLR 21/14 A3029 RMK A01
K2A0 211655Z AUTO 00000KT 10SM CLR 19/13 A3029 RMK A01
K2A0 211635Z AUTO 00000KT 10SM CLR 18/15 A3030 RMK A01
K2A0 211615Z AUTO 00000KT 10SM CLR 16/16 A3031 RMK A01
K2A0 211555Z AUTO 00000KT 8SM FEW003 14/14 A3031 RMK A01
K2A0 211535Z AUTO 00000KT 2 1/2SM BR BKN002 13/13 A3032 RMK A01 VIS 1V5
K2A0 211515Z AUTO 00000KT 1SM BR OVC002 13/13 A3032 RMK A01
K2A0 211455Z AUTO 00000KT M1/4SM FG OVC002 12/12 A3032 RMK A01
K2A0 211435Z AUTO 00000KT M1/4SM FG OVC002 12/12 A3032 RMK A01
K2A0 211415Z AUTO 36004KT M1/4SM FG OVC002 12/12 A3030 RMK A01
K2A0 211355Z AUTO 00000KT M1/4SM FG OVC002 11/11 A3031 RMK A01
K2A0 211335Z AUTO 00000KT M1/4SM FG OVC002 10/10 A3031 RMK A01
K2A0 211315Z AUTO 00000KT M1/4SM FG OVC002 10/10 A3030 RMK A01
K2A0 211255Z AUTO 00000KT M1/4SM FG OVC002 10/10 A3029 RMK A01
K2A0 211235Z AUTO 00000KT M1/4SM FG OVC002 10/10 A3029 RMK A01
K2A0 211215Z AUTO 00000KT M1/4SM FG OVC002 09/09 A3028 RMK A01
K2A0 211155Z AUTO 00000KT M1/4SM FG OVC002 09/09 A3027 RMK A01
K2A0 211135Z AUTO 00000KT 3/4SM BR OVC002 09/09 A3027 RMK A01
K2A0 211115Z AUTO 00000KT 1/2SM FG 09/09 A3026 RMK A01
K2A0 211055Z AUTO 00000KT 1/2SM FG 09/09 A3025 RMK A01
K2A0 211035Z AUTO 00000KT M1/4SM FG 09/09 A3025 RMK A01
K2A0 211015Z AUTO 00000KT 1/4SM FG OVC002 10/09 A3025 RMK A01
K2A0 210955Z AUTO 00000KT 1SM BR OVC002 09/09 A3025 RMK A01
K2A0 210935Z AUTO 00000KT 1/2SM BR 09/09 A3024 RMK A01
K2A0 210915Z AUTO 00000KT M1/4SM FG 09/09 A3023 RMK A01